createdAt,value
2018-12-29T00:00:59.708Z,78.69
2018-12-29T00:03:29.068Z,78.82
2018-12-29T00:05:58.385Z,78.91
2018-12-29T00:08:27.712Z,78.74
2018-12-29T00:10:57.035Z,79.14
2018-12-29T00:13:26.401Z,79.32
2018-12-29T00:15:55.746Z,78.94
2018-12-29T00:18:25.154Z,78.86
2018-12-29T00:20:54.486Z,79.01
2018-12-29T00:23:23.907Z,79.77
2018-12-29T00:25:53.234Z,80.04
2018-12-29T00:28:22.663Z,80.31
2018-12-29T00:30:51.970Z,80.43
2018-12-29T00:33:21.277Z,80.55
2018-12-29T00:35:50.615Z,80.88
2018-12-29T00:38:19.981Z,80.94
2018-12-29T00:40:49.300Z,80.74
2018-12-29T00:43:18.587Z,80.77
2018-12-29T00:45:47.924Z,80.73
2018-12-29T00:48:17.263Z,80.51
2018-12-29T00:50:46.596Z,80.50
2018-12-29T00:53:15.946Z,80.42
2018-12-29T00:55:45.290Z,80.32
2018-12-29T00:58:14.626Z,79.97
2018-12-29T01:00:43.956Z,79.89
2018-12-29T01:03:13.302Z,80.12
2018-12-29T01:05:42.655Z,80.08
2018-12-29T01:08:12.018Z,79.97
2018-12-29T01:10:42.463Z,79.96
2018-12-29T01:13:11.921Z,80.33
2018-12-29T01:15:41.236Z,80.57
2018-12-29T01:18:10.600Z,80.70
2018-12-29T01:20:39.938Z,81.14
2018-12-29T01:23:09.306Z,81.59
2018-12-29T01:25:38.642Z,81.63
2018-12-29T01:28:07.960Z,81.67
2018-12-29T01:30:37.330Z,81.81
2018-12-29T01:33:06.669Z,81.99
2018-12-29T01:35:35.957Z,82.30
2018-12-29T01:38:05.326Z,82.44
2018-12-29T01:40:34.641Z,82.33
2018-12-29T01:43:03.968Z,82.63
2018-12-29T01:45:33.803Z,82.64
2018-12-29T01:48:03.129Z,82.81
2018-12-29T01:50:32.502Z,83.33
2018-12-29T01:53:01.812Z,83.68
2018-12-29T01:55:31.155Z,83.83
2018-12-29T01:58:00.497Z,83.73
2018-12-29T02:00:29.824Z,83.61
2018-12-29T02:02:59.164Z,83.47
2018-12-29T02:05:28.494Z,83.49
2018-12-29T02:07:57.888Z,83.30
2018-12-29T02:10:27.231Z,83.31
2018-12-29T02:12:56.603Z,83.15
2018-12-29T02:15:25.974Z,82.83
2018-12-29T02:17:55.272Z,82.91
2018-12-29T02:20:24.613Z,82.91
2018-12-29T02:22:53.942Z,82.87
2018-12-29T02:25:23.278Z,82.67
2018-12-29T02:27:52.722Z,82.17
2018-12-29T02:30:22.030Z,81.04
2018-12-29T02:32:51.384Z,79.93
2018-12-29T02:35:20.776Z,79.36
2018-12-29T02:37:50.159Z,79.35
2018-12-29T02:40:19.472Z,78.88
2018-12-29T02:42:48.820Z,78.56
2018-12-29T02:45:18.170Z,77.49
2018-12-29T02:47:47.506Z,77.68
2018-12-29T02:50:16.857Z,77.70
2018-12-29T02:52:46.202Z,77.33
2018-12-29T02:55:15.534Z,77.17
2018-12-29T02:57:44.849Z,76.96
2018-12-29T03:00:14.212Z,77.16
2018-12-29T03:02:43.651Z,76.97
2018-12-29T03:05:12.967Z,76.72
2018-12-29T03:07:42.309Z,77.20
2018-12-29T03:10:11.595Z,77.12
2018-12-29T03:12:40.947Z,77.29
2018-12-29T03:15:10.258Z,77.56
2018-12-29T03:17:39.603Z,77.65
2018-12-29T03:20:08.917Z,78.07
2018-12-29T03:22:38.223Z,78.26
2018-12-29T03:25:07.522Z,78.35
2018-12-29T03:27:36.864Z,78.05
2018-12-29T03:30:06.324Z,78.06
2018-12-29T03:32:35.643Z,78.21
2018-12-29T03:35:05.265Z,78.21
2018-12-29T03:37:34.738Z,78.24
2018-12-29T03:40:04.748Z,78.16
2018-12-29T03:42:34.095Z,78.05
2018-12-29T03:45:03.462Z,78.37
2018-12-29T03:47:32.880Z,78.44
2018-12-29T03:50:02.232Z,78.63
2018-12-29T03:52:31.617Z,78.74
2018-12-29T03:55:00.952Z,78.71
2018-12-29T03:57:30.282Z,79.00
2018-12-29T03:59:59.635Z,79.29
2018-12-29T04:02:28.979Z,79.44
2018-12-29T04:04:58.297Z,79.82
2018-12-29T04:07:27.638Z,80.11
2018-12-29T04:09:57.341Z,80.22
2018-12-29T04:12:28.798Z,80.17
2018-12-29T04:14:58.122Z,80.16
2018-12-29T04:17:27.457Z,79.95
2018-12-29T04:19:56.751Z,79.64
2018-12-29T04:22:26.090Z,79.34
2018-12-29T04:24:55.408Z,79.34
2018-12-29T04:27:24.707Z,79.21
2018-12-29T04:29:54.061Z,78.96
2018-12-29T04:32:23.359Z,79.00
2018-12-29T04:34:52.702Z,79.08
2018-12-29T04:37:22.025Z,79.00
2018-12-29T04:39:51.349Z,79.08
2018-12-29T04:42:20.703Z,79.28
2018-12-29T04:44:50.045Z,79.38
2018-12-29T04:47:19.391Z,79.32
2018-12-29T04:49:51.040Z,78.89
2018-12-29T04:52:20.393Z,79.03
2018-12-29T04:54:49.727Z,78.69
2018-12-29T04:57:19.080Z,78.56
2018-12-29T04:59:55.220Z,78.44
2018-12-29T05:02:24.582Z,78.40
2018-12-29T05:04:53.914Z,78.12
2018-12-29T05:07:23.270Z,78.40
2018-12-29T05:09:52.611Z,78.52
2018-12-29T05:12:22.002Z,78.48
2018-12-29T05:14:51.398Z,78.35
2018-12-29T05:17:20.759Z,78.27
2018-12-29T05:19:50.084Z,78.23
2018-12-29T05:22:19.417Z,78.15
2018-12-29T05:24:48.754Z,78.35
2018-12-29T05:27:18.068Z,78.35
2018-12-29T05:29:47.448Z,78.32
2018-12-29T05:32:16.756Z,78.18
2018-12-29T05:34:46.083Z,77.59
2018-12-29T05:37:15.430Z,77.36
2018-12-29T05:39:44.768Z,76.75
2018-12-29T05:42:14.132Z,76.81
2018-12-29T05:44:43.460Z,76.24
2018-12-29T05:47:12.825Z,76.54
2018-12-29T05:49:42.154Z,76.49
2018-12-29T05:52:11.475Z,76.68
2018-12-29T05:54:40.834Z,76.59
2018-12-29T05:57:10.142Z,76.28
2018-12-29T05:59:39.479Z,76.49
2018-12-29T06:02:13.189Z,76.43
2018-12-29T06:04:42.489Z,76.36
2018-12-29T06:07:11.823Z,75.68
2018-12-29T06:09:41.238Z,75.24
2018-12-29T06:12:10.576Z,75.23
2018-12-29T06:14:39.905Z,75.54
2018-12-29T06:17:09.232Z,75.38
2018-12-29T06:19:38.529Z,75.64
2018-12-29T06:22:07.869Z,75.71
2018-12-29T06:24:37.166Z,75.68
2018-12-29T06:27:53.450Z,75.72
2018-12-29T06:30:22.785Z,75.93
2018-12-29T06:32:52.197Z,76.22
2018-12-29T06:35:21.521Z,76.40
2018-12-29T06:37:50.869Z,76.49
2018-12-29T06:40:20.206Z,76.50
2018-12-29T06:42:49.528Z,76.53
2018-12-29T06:45:18.825Z,76.73
2018-12-29T06:47:48.169Z,76.61
2018-12-29T06:50:17.524Z,76.59
2018-12-29T06:52:46.877Z,76.56
2018-12-29T06:55:16.219Z,76.75
2018-12-29T06:57:47.229Z,76.71
2018-12-29T07:00:16.671Z,76.90
2018-12-29T07:02:46.001Z,76.77
2018-12-29T07:05:15.353Z,76.74
2018-12-29T07:07:44.725Z,76.44
2018-12-29T07:10:14.060Z,76.62
2018-12-29T07:12:43.377Z,76.42
2018-12-29T07:15:12.808Z,76.37
2018-12-29T07:17:42.154Z,76.13
2018-12-29T07:20:11.510Z,75.78
2018-12-29T07:22:40.853Z,75.83
2018-12-29T07:25:10.152Z,75.49
2018-12-29T07:27:39.510Z,74.85
2018-12-29T07:30:09.237Z,74.85
2018-12-29T07:32:38.631Z,74.28
2018-12-29T07:35:07.946Z,74.23
2018-12-29T07:37:37.286Z,74.31
2018-12-29T07:40:06.612Z,74.11
2018-12-29T07:42:36.452Z,74.31
2018-12-29T07:45:05.758Z,73.99
2018-12-29T07:47:35.145Z,73.89
2018-12-29T07:50:04.684Z,73.65
2018-12-29T07:52:34.015Z,73.38
2018-12-29T07:55:03.351Z,73.31
2018-12-29T07:57:32.785Z,73.38
2018-12-29T08:00:02.108Z,73.02
2018-12-29T08:02:31.472Z,72.58
2018-12-29T08:05:00.830Z,72.72
2018-12-29T08:07:30.153Z,72.63
2018-12-29T08:09:59.488Z,72.36
2018-12-29T08:12:28.843Z,72.20
2018-12-29T08:14:58.148Z,72.12
2018-12-29T08:17:27.883Z,72.29
2018-12-29T08:19:57.194Z,72.45
2018-12-29T08:22:26.526Z,72.44
2018-12-29T08:24:55.832Z,72.54
2018-12-29T08:27:25.174Z,72.68
2018-12-29T08:29:54.512Z,72.89
2018-12-29T08:32:23.861Z,72.97
2018-12-29T08:34:53.241Z,73.01
2018-12-29T08:37:22.716Z,73.13
2018-12-29T08:39:52.037Z,72.88
2018-12-29T08:42:21.360Z,72.89
2018-12-29T08:44:50.634Z,72.84
2018-12-29T08:47:19.985Z,73.00
2018-12-29T08:49:49.326Z,73.09
2018-12-29T08:52:18.636Z,72.83
2018-12-29T08:54:47.945Z,72.59
2018-12-29T08:57:17.697Z,72.43
2018-12-29T08:59:47.243Z,72.64
2018-12-29T09:02:16.588Z,73.04
2018-12-29T09:04:47.057Z,73.06
2018-12-29T09:07:16.444Z,73.12
2018-12-29T09:09:45.810Z,73.40
2018-12-29T09:12:15.163Z,73.50
2018-12-29T09:14:44.964Z,73.81
2018-12-29T09:17:14.329Z,73.77
2018-12-29T09:19:43.685Z,73.90
2018-12-29T09:22:13.021Z,73.91
2018-12-29T09:24:42.314Z,74.15
2018-12-29T09:27:11.649Z,73.93
2018-12-29T09:29:40.993Z,73.34
